createdAt,value
2022-12-24T00:00:58.283Z,6.13
2022-12-24T00:06:04.999Z,8.80
2022-12-24T00:11:06.790Z,11.32
2022-12-24T00:16:08.633Z,7.72
2022-12-24T00:21:10.398Z,6.13
2022-12-24T00:26:13.324Z,10.02
2022-12-24T00:31:17.865Z,5.20
2022-12-24T00:36:20.613Z,6.93
2022-12-24T00:41:25.848Z,7.43
2022-12-24T00:46:30.443Z,9.48
2022-12-24T00:51:32.998Z,7.78
2022-12-24T00:56:34.789Z,9.23
2022-12-24T01:01:36.994Z,6.85
2022-12-24T01:06:38.785Z,11.13
2022-12-24T01:11:40.814Z,8.25
2022-12-24T01:16:42.519Z,12.43
2022-12-24T01:21:44.256Z,7.47
2022-12-24T01:26:46.050Z,5.47
2022-12-24T01:31:47.859Z,4.85
2022-12-24T01:36:49.536Z,11.57
2022-12-24T01:42:26.516Z,7.93
2022-12-24T01:47:30.383Z,12.48
2022-12-24T01:52:35.831Z,8.55
2022-12-24T01:57:43.178Z,4.60
2022-12-24T02:02:49.563Z,6.05
2022-12-24T02:07:52.088Z,7.45
2022-12-24T02:12:54.379Z,7.95
2022-12-24T02:18:17.559Z,12.02
2022-12-24T02:23:57.323Z,6.70
2022-12-24T02:29:14.091Z,10.15
2022-12-24T02:34:25.034Z,12.90
2022-12-24T02:39:52.123Z,11.05
2022-12-24T02:45:09.079Z,10.10
2022-12-24T02:50:15.650Z,13.38
2022-12-24T02:55:24.867Z,7.38
2022-12-24T03:00:27.722Z,11.25
2022-12-24T03:05:56.313Z,14.05
2022-12-24T03:11:05.512Z,15.93
2022-12-24T03:16:24.643Z,18.05
2022-12-24T03:21:31.786Z,10.43
2022-12-24T03:26:34.282Z,16.55
2022-12-24T03:31:47.865Z,20.98
2022-12-24T03:36:50.162Z,15.32
2022-12-24T03:41:51.849Z,8.13
2022-12-24T03:46:53.529Z,20.10
2022-12-24T03:51:55.379Z,10.27
2022-12-24T03:56:57.287Z,8.65
2022-12-24T04:01:59.233Z,15.63
2022-12-24T04:07:01.091Z,12.85
2022-12-24T04:12:02.936Z,8.55
2022-12-24T04:17:04.781Z,15.98
2022-12-24T04:22:06.497Z,14.30
2022-12-24T04:27:08.258Z,17.98
2022-12-24T04:32:10.586Z,13.68
2022-12-24T04:37:13.013Z,17.48
2022-12-24T04:42:15.354Z,12.82
2022-12-24T04:47:17.163Z,9.35
2022-12-24T04:52:18.963Z,18.73
2022-12-24T04:57:21.095Z,14.25
2022-12-24T05:02:23.019Z,15.90
2022-12-24T05:07:24.846Z,13.70
2022-12-24T05:12:26.657Z,10.27
2022-12-24T05:17:28.432Z,12.98
2022-12-24T05:22:48.562Z,18.40
2022-12-24T05:27:51.467Z,10.20
2022-12-24T05:32:53.319Z,14.93
2022-12-24T05:37:58.197Z,12.77
2022-12-24T05:42:59.993Z,19.63
2022-12-24T05:48:01.769Z,15.90
2022-12-24T05:53:03.710Z,12.20
2022-12-24T05:58:05.445Z,13.50
2022-12-24T06:03:07.252Z,14.30
2022-12-24T06:08:09.037Z,15.02
2022-12-24T06:13:10.741Z,11.98
2022-12-24T06:18:12.540Z,13.98
2022-12-24T06:23:14.323Z,13.88
2022-12-24T06:28:16.609Z,11.60
2022-12-24T06:33:18.463Z,15.63
2022-12-24T06:38:20.400Z,12.63
2022-12-24T06:43:22.140Z,11.98
2022-12-24T06:48:23.877Z,9.88
2022-12-24T06:53:25.673Z,13.85
2022-12-24T06:58:27.374Z,12.45
2022-12-24T07:03:29.736Z,14.32
2022-12-24T07:08:36.332Z,15.63
2022-12-24T07:13:38.367Z,11.15
2022-12-24T07:18:40.110Z,12.85
2022-12-24T07:23:42.313Z,17.15
2022-12-24T07:28:44.090Z,20.45
2022-12-24T07:33:45.854Z,10.73
2022-12-24T07:38:48.728Z,13.68
2022-12-24T07:43:50.482Z,9.07
2022-12-24T07:48:52.234Z,12.23
2022-12-24T07:53:54.014Z,9.55
2022-12-24T07:58:55.764Z,9.00
2022-12-24T08:03:57.547Z,31.20
2022-12-24T08:08:59.349Z,16.98
2022-12-24T08:14:01.144Z,17.00
2022-12-24T08:19:02.903Z,13.80
2022-12-24T08:24:05.114Z,16.05
2022-12-24T08:29:07.095Z,18.80
2022-12-24T08:34:10.570Z,15.38
2022-12-24T08:39:12.311Z,13.80
2022-12-24T08:44:14.115Z,19.90
2022-12-24T08:49:16.139Z,6.78
2022-12-24T08:54:17.921Z,5.35
2022-12-24T08:59:19.779Z,32.90
2022-12-24T09:04:21.572Z,13.25
2022-12-24T09:09:23.569Z,10.90
2022-12-24T09:14:25.382Z,11.93
2022-12-24T09:19:28.240Z,14.52
2022-12-24T09:24:30.409Z,10.82
2022-12-24T09:29:32.273Z,10.30
2022-12-24T09:34:34.039Z,12.07
2022-12-24T09:39:35.812Z,10.27
2022-12-24T09:44:47.346Z,15.90
2022-12-24T09:49:53.351Z,12.02
2022-12-24T09:55:26.069Z,9.85
2022-12-24T10:00:36.104Z,11.23
2022-12-24T10:05:45.139Z,13.05
2022-12-24T10:11:19.199Z,8.85
2022-12-24T10:16:27.258Z,7.97
2022-12-24T10:22:00.724Z,11.85
2022-12-24T10:27:09.895Z,6.75
2022-12-24T10:32:27.167Z,11.13
2022-12-24T10:37:30.318Z,12.32
2022-12-24T10:42:50.312Z,13.65
2022-12-24T10:48:01.841Z,22.60
2022-12-24T10:53:38.936Z,15.70
2022-12-24T10:58:45.924Z,18.70
2022-12-24T11:04:01.429Z,13.40
2022-12-24T11:09:25.231Z,13.07
2022-12-24T11:14:33.217Z,15.13
2022-12-24T11:19:41.316Z,19.10
2022-12-24T11:24:49.683Z,15.52
2022-12-24T11:29:51.957Z,13.80
2022-12-24T11:34:53.667Z,15.25
2022-12-24T11:40:02.050Z,14.48
2022-12-24T11:45:19.458Z,11.15
2022-12-24T11:50:35.696Z,15.73
2022-12-24T11:56:15.513Z,25.17
2022-12-24T12:01:30.296Z,9.45
2022-12-24T12:06:40.508Z,17.10
2022-12-24T12:11:45.400Z,11.98
2022-12-24T12:17:07.758Z,16.27
2022-12-24T12:22:36.507Z,11.65
2022-12-24T12:27:47.717Z,15.80
2022-12-24T12:33:10.493Z,10.77
2022-12-24T12:38:30.725Z,10.98
2022-12-24T12:43:53.097Z,9.48
2022-12-24T12:49:09.770Z,17.05
2022-12-24T12:54:17.794Z,10.60
2022-12-24T12:59:29.910Z,9.82
2022-12-24T13:04:44.622Z,18.38
2022-12-24T13:10:24.027Z,16.10
2022-12-24T13:15:37.609Z,17.25
2022-12-24T13:20:50.544Z,18.85
2022-12-24T13:25:55.056Z,17.63
2022-12-24T13:31:12.361Z,36.80
2022-12-24T13:36:17.023Z,18.65
2022-12-24T13:41:39.217Z,15.07
2022-12-24T13:47:00.333Z,29.55
2022-12-24T13:52:19.580Z,26.38
2022-12-24T13:57:27.515Z,13.15
2022-12-24T14:02:33.637Z,21.02
2022-12-24T14:07:38.459Z,24.67
2022-12-24T14:12:51.959Z,12.10
2022-12-24T14:17:54.186Z,22.40
2022-12-24T14:22:57.505Z,18.55
2022-12-24T14:28:05.995Z,15.18
2022-12-24T14:33:34.603Z,15.43
2022-12-24T14:38:36.976Z,15.80
2022-12-24T14:44:04.006Z,15.10
2022-12-24T14:49:44.244Z,14.48
2022-12-24T14:54:46.071Z,14.20
2022-12-24T14:59:52.176Z,8.30
2022-12-24T15:05:13.374Z,9.38
2022-12-24T15:10:24.556Z,18.27
2022-12-24T15:15:28.612Z,16.50
2022-12-24T15:20:31.362Z,19.88
2022-12-24T15:25:33.477Z,12.90
2022-12-24T15:30:35.212Z,17.45
2022-12-24T15:35:53.160Z,10.45
2022-12-24T15:40:56.012Z,14.88
2022-12-24T15:45:57.869Z,18.88
2022-12-24T15:51:02.989Z,14.75
2022-12-24T15:56:13.666Z,22.52
2022-12-24T16:01:15.434Z,22.93
2022-12-24T16:06:17.724Z,13.13
2022-12-24T16:11:23.872Z,14.15
2022-12-24T16:16:34.966Z,25.60
2022-12-24T16:21:39.736Z,33.60
2022-12-24T16:26:41.545Z,31.58
2022-12-24T16:31:50.887Z,32.67
2022-12-24T16:36:52.582Z,18.17
2022-12-24T16:42:15.046Z,19.88
2022-12-24T16:47:22.681Z,19.52
2022-12-24T16:52:28.802Z,17.35
2022-12-24T16:57:33.398Z,23.08
2022-12-24T17:02:35.252Z,21.50
2022-12-24T17:07:43.101Z,25.13
2022-12-24T17:12:45.518Z,27.92
2022-12-24T17:17:47.284Z,33.50
2022-12-24T17:22:49.499Z,27.50
2022-12-24T17:27:51.240Z,29.98
2022-12-24T17:32:52.956Z,20.88
2022-12-24T17:37:54.676Z,16.02
2022-12-24T17:42:56.393Z,26.92
2022-12-24T17:47:58.194Z,28.02
2022-12-24T17:52:59.904Z,37.95
2022-12-24T17:58:02.048Z,30.63
2022-12-24T18:03:03.989Z,32.85
2022-12-24T18:08:06.071Z,29.52
2022-12-24T18:13:11.505Z,31.58
2022-12-24T18:18:17.403Z,26.30
2022-12-24T18:23:19.100Z,26.30
2022-12-24T18:28:20.811Z,23.60
2022-12-24T18:33:22.536Z,24.70
2022-12-24T18:38:24.212Z,30.17
2022-12-24T18:43:25.867Z,26.52
2022-12-24T18:48:27.564Z,26.35
2022-12-24T18:53:29.574Z,39.83
2022-12-24T18:58:31.323Z,45.05
2022-12-24T19:03:33.015Z,44.78
2022-12-24T19:13:58.113Z,50.53
2022-12-24T19:19:00.176Z,49.50
2022-12-24T19:24:02.072Z,25.10
2022-12-24T19:29:03.999Z,37.33
2022-12-24T19:34:05.667Z,29.58
2022-12-24T19:39:07.480Z,29.42
2022-12-24T19:44:09.923Z,29.33
2022-12-24T19:49:12.292Z,17.40
2022-12-24T19:54:18.948Z,37.88
2022-12-24T19:59:21.088Z,29.35
2022-12-24T20:04:22.814Z,32.88
2022-12-24T20:09:24.450Z,34.35
2022-12-24T20:14:26.345Z,27.30
2022-12-24T20:19:27.993Z,20.70
2022-12-24T20:24:29.746Z,25.45
2022-12-24T20:29:31.529Z,36.03
2022-12-24T20:34:33.276Z,46.85
2022-12-24T20:39:35.013Z,32.08
2022-12-24T20:44:36.738Z,37.20
2022-12-24T20:49:38.596Z,32.55
2022-12-24T20:54:40.545Z,29.77
2022-12-24T20:59:42.288Z,27.83
2022-12-24T21:04:43.934Z,25.25
2022-12-24T21:09:45.653Z,22.98
2022-12-24T21:14:47.336Z,23.17
2022-12-24T21:19:49.024Z,22.90
2022-12-24T21:24:50.793Z,25.17
2022-12-24T21:29:52.565Z,30.98
2022-12-24T21:34:54.218Z,23.95
2022-12-24T21:39:55.954Z,23.25
2022-12-24T21:44:57.722Z,24.40
2022-12-24T21:50:17.862Z,21.85
2022-12-24T21:55:19.574Z,13.35
2022-12-24T22:00:21.536Z,8.93
2022-12-24T22:05:24.892Z,13.95
2022-12-24T22:10:45.189Z,14.55
2022-12-24T22:15:50.554Z,14.27
2022-12-24T22:20:52.402Z,15.63
2022-12-24T22:25:54.194Z,17.48
2022-12-24T22:30:56.087Z,9.35
2022-12-24T22:35:57.771Z,16.67
2022-12-24T22:40:59.468Z,11.45
2022-12-24T22:46:04.540Z,7.38
2022-12-24T22:51:14.932Z,9.77
2022-12-24T22:56:20.530Z,8.18
2022-12-24T23:01:52.647Z,6.60
2022-12-24T23:06:54.479Z,7.67
2022-12-24T23:11:56.131Z,8.55
2022-12-24T23:16:57.776Z,9.25
2022-12-24T23:22:00.888Z,6.78
2022-12-24T23:27:02.700Z,4.28
2022-12-24T23:32:04.593Z,4.53
2022-12-24T23:37:06.255Z,8.55
2022-12-24T23:42:07.903Z,6.15
2022-12-24T23:47:09.642Z,4.80
2022-12-24T23:52:11.353Z,6.47
2022-12-24T23:57:13.068Z,6.25
